Time;durP1;ratioP1;P1;durP2;ratioP2;P2;SDS_P1;SDS_P2;PMS_P1;PMS_P2;Temp;Humidity;BMP_temperature;BMP_pressure;BME280_temperature;BME280_humidity;BME280_pressure;Samples;Min_cycle;Max_cycle;Signal;HPM_P1;HPM_P2
2023/03/06 00:00:33;;;;;;;49.90;22.10;;;;;;;-0.56;89.51;97644.77;104777;1262;99471;-69
2023/03/06 00:03:00;;;;;;;49.50;21.00;;;;;;;-0.56;89.54;97641.79;104672;1263;108780;-69
2023/03/06 00:05:28;;;;;;;46.00;18.60;;;;;;;-0.56;89.57;97636.52;104762;1263;100591;-70
2023/03/06 00:07:55;;;;;;;46.60;20.70;;;;;;;-0.57;89.42;97638.35;104678;1262;99696;-67
2023/03/06 00:10:25;;;;;;;41.00;19.00;;;;;;;-0.56;89.62;97638.73;104691;1263;100580;-75
2023/03/06 00:12:58;;;;;;;44.60;17.70;;;;;;;-0.57;89.18;97641.20;104636;1266;100418;-76
2023/03/06 00:15:26;;;;;;;40.60;17.90;;;;;;;-0.56;89.27;97638.40;104690;1262;108150;-75
2023/03/06 00:17:53;;;;;;;37.10;17.40;;;;;;;-0.57;89.24;97637.05;104743;1264;99432;-73
2023/03/06 00:20:21;;;;;;;41.10;17.20;;;;;;;-0.63;89.07;97638.48;104913;1262;99420;-76
2023/03/06 00:22:49;;;;;;;42.80;19.50;;;;;;;-0.69;89.22;97632.67;104960;1263;113375;-70
2023/03/06 00:25:20;;;;;;;40.80;17.70;;;;;;;-0.75;89.26;97630.55;104966;1263;99262;-73
2023/03/06 00:27:48;;;;;;;42.20;17.50;;;;;;;-0.82;88.97;97630.64;104721;1263;108718;-73
2023/03/06 00:30:20;;;;;;;38.50;17.50;;;;;;;-0.89;89.20;97627.02;104513;1263;99429;-75
2023/03/06 00:32:48;;;;;;;56.10;23.50;;;;;;;-0.93;88.92;97621.55;104519;1265;101102;-75
2023/03/06 00:35:15;;;;;;;60.50;23.60;;;;;;;-0.95;88.95;97627.31;104610;1263;113668;-73
2023/03/06 00:37:43;;;;;;;66.20;25.50;;;;;;;-0.97;88.78;97627.63;104602;1266;99316;-76
2023/03/06 00:40:16;;;;;;;60.30;23.90;;;;;;;-0.95;88.93;97626.50;104727;1269;108503;-68
2023/03/06 00:42:44;;;;;;;56.60;22.50;;;;;;;-0.91;88.99;97619.80;104888;1270;99253;-68
2023/03/06 00:45:12;;;;;;;57.30;26.40;;;;;;;-0.87;89.02;97616.20;104922;1275;100460;-76
2023/03/06 00:47:40;;;;;;;52.50;23.00;;;;;;;-0.85;88.97;97621.92;104546;1265;113179;-69
2023/03/06 00:50:09;;;;;;;61.80;22.40;;;;;;;-0.83;88.75;97625.80;104590;1265;100843;-70
2023/03/06 00:52:36;;;;;;;44.70;19.40;;;;;;;-0.82;88.89;97619.61;104909;1262;108754;-72
2023/03/06 00:55:04;;;;;;;53.20;22.70;;;;;;;-0.81;88.90;97616.17;104788;1257;99329;-67
2023/03/06 00:57:32;;;;;;;38.60;18.00;;;;;;;-0.83;88.88;97622.46;104894;1257;99508;-69
2023/03/06 00:59:59;;;;;;;44.00;20.40;;;;;;;-0.87;88.89;97620.20;104833;1262;99252;-67
2023/03/06 01:02:26;;;;;;;39.50;19.50;;;;;;;-0.89;88.83;97622.66;104840;1262;100573;-67
2023/03/06 01:04:54;;;;;;;32.50;16.70;;;;;;;-0.93;88.94;97621.68;104631;1262;320791;-72
2023/03/06 01:07:21;;;;;;;35.40;16.90;;;;;;;-1.00;89.02;97618.31;104716;1264;99397;-67
2023/03/06 01:09:49;;;;;;;34.10;14.80;;;;;;;-1.04;89.25;97617.12;104894;1263;99266;-68
2023/03/06 01:12:16;;;;;;;33.70;15.80;;;;;;;-1.10;89.43;97615.05;104741;1262;99948;-67
2023/03/06 01:14:43;;;;;;;33.30;15.90;;;;;;;-1.14;89.48;97610.90;104771;1280;99265;-67
2023/03/06 01:17:11;;;;;;;35.70;15.40;;;;;;;-1.17;89.42;97609.48;104781;1263;99321;-68
2023/03/06 01:19:38;;;;;;;39.80;18.20;;;;;;;-1.19;89.34;97611.15;104609;1274;99345;-67
2023/03/06 01:22:05;;;;;;;39.10;17.70;;;;;;;-1.20;89.33;97611.02;104696;1263;99246;-67
2023/03/06 01:24:32;;;;;;;37.30;16.60;;;;;;;-1.21;89.03;97610.45;104522;1269;99225;-67
2023/03/06 01:26:59;;;;;;;48.20;20.60;;;;;;;-1.21;89.24;97611.25;104733;1263;99339;-69
2023/03/06 01:29:26;;;;;;;44.10;18.40;;;;;;;-1.19;89.43;97608.99;104641;1272;99231;-73
2023/03/06 01:31:54;;;;;;;40.30;17.60;;;;;;;-1.15;89.48;97606.00;104884;1262;99254;-76
2023/03/06 01:34:21;;;;;;;35.80;16.50;;;;;;;-1.10;89.32;97606.02;105001;1271;99551;-74
2023/03/06 01:36:48;;;;;;;33.40;15.60;;;;;;;-1.09;89.21;97604.52;104902;1262;99288;-73
2023/03/06 01:39:15;;;;;;;32.40;15.20;;;;;;;-1.08;89.38;97603.02;104988;1271;100569;-73
2023/03/06 01:41:42;;;;;;;28.90;13.70;;;;;;;-1.09;89.15;97597.80;104945;1262;99324;-74
2023/03/06 01:44:12;;;;;;;31.20;15.90;;;;;;;-1.10;89.10;97598.88;104837;1263;99247;-75
2023/03/06 01:46:43;;;;;;;28.80;14.20;;;;;;;-1.10;89.32;97590.42;104893;1271;113560;-72
2023/03/06 01:49:30;;;;;;;31.80;13.80;;;;;;;-1.14;89.29;97582.02;104937;1267;99331;-74
2023/03/06 01:52:02;;;;;;;27.60;11.80;;;;;;;-1.23;89.35;97578.54;104920;1264;108614;-72
2023/03/06 01:54:37;;;;;;;17.80;8.60;;;;;;;-1.31;89.37;97567.71;104812;1272;99258;-73
2023/03/06 01:57:08;;;;;;;27.70;11.90;;;;;;;-1.38;89.48;97568.00;104553;1264;99641;-76
2023/03/06 01:59:35;;;;;;;;;;;;;;;-1.43;89.39;97573.04;104709;1279;113631;-76
2023/03/06 02:02:05;;;;;;;22.50;10.50;;;;;;;-1.48;89.47;97570.80;104879;1273;99169;-75
2023/03/06 02:04:34;;;;;;;24.10;10.60;;;;;;;-1.50;89.52;97570.15;104854;1271;108711;-73
2023/03/06 02:07:05;;;;;;;25.10;11.50;;;;;;;-1.51;89.36;97569.34;104461;1265;99285;-69
2023/03/06 02:09:33;;;;;;;25.30;12.00;;;;;;;-1.54;89.53;97566.10;104909;1262;99256;-71
2023/03/06 02:12:02;;;;;;;32.50;13.80;;;;;;;-1.53;89.62;97567.18;104795;1263;113384;-68
2023/03/06 02:14:29;;;;;;;25.80;10.40;;;;;;;-1.51;89.66;97563.59;104905;1271;100500;-69
2023/03/06 02:16:56;;;;;;;23.60;11.10;;;;;;;-1.51;89.65;97565.48;104904;1261;99247;-73
2023/03/06 02:19:32;;;;;;;37.60;17.10;;;;;;;-1.48;89.66;97565.42;104846;1262;99256;-71
2023/03/06 02:22:00;;;;;;;27.00;11.70;;;;;;;-1.46;89.80;97563.19;104960;1263;99679;-72
2023/03/06 02:24:50;;;;;;;31.10;13.40;;;;;;;-1.44;89.74;97566.58;104928;1261;113597;-72
2023/03/06 02:27:18;;;;;;;29.80;12.60;;;;;;;-1.40;89.78;97562.99;104987;1261;100543;-69
2023/03/06 02:29:45;;;;;;;24.10;11.20;;;;;;;-1.38;89.90;97559.36;104953;1271;108155;-70
2023/03/06 02:32:12;;;;;;;19.70;9.70;;;;;;;-1.35;89.93;97560.55;104898;1262;100431;-69
2023/03/06 02:34:46;;;;;;;27.20;12.80;;;;;;;-1.33;90.14;97564.42;104699;1263;99258;-69
2023/03/06 02:37:13;;;;;;;27.20;12.80;;;;;;;-1.29;89.89;97566.74;104813;1262;113696;-69
2023/03/06 02:39:59;;;;;;;31.30;13.80;;;;;;;-1.22;89.82;97564.23;104969;1272;99326;-69
2023/03/06 02:42:30;;;;;;;26.60;12.70;;;;;;;-1.18;89.67;97567.34;104914;1271;108220;-69
2023/03/06 02:45:01;;;;;;;22.30;11.70;;;;;;;-1.17;89.59;97564.86;104923;1273;99333;-69
2023/03/06 02:47:27;;;;;;;23.30;12.10;;;;;;;-1.16;89.68;97565.63;104652;1262;99361;-69
2023/03/06 02:49:54;;;;;;;26.60;12.30;;;;;;;-1.18;89.65;97563.34;104710;1271;99336;-70
2023/03/06 02:52:21;;;;;;;19.20;11.70;;;;;;;-1.16;89.65;97565.34;104774;1263;99754;-72
2023/03/06 02:54:49;;;;;;;22.50;11.90;;;;;;;-1.21;89.53;97569.35;104875;1272;99268;-70
2023/03/06 02:57:16;;;;;;;20.60;11.50;;;;;;;-1.27;89.33;97566.11;104851;1271;99253;-70
2023/03/06 02:59:43;;;;;;;23.10;12.20;;;;;;;-1.33;89.33;97565.98;104754;1267;99174;-70
2023/03/06 03:02:10;;;;;;;25.20;13.20;;;;;;;-1.34;89.63;97565.70;104924;1273;99298;-69
2023/03/06 03:04:36;;;;;;;28.60;14.20;;;;;;;-1.30;89.91;97563.36;104649;1271;99676;-68
2023/03/06 03:07:04;;;;;;;30.80;15.90;;;;;;;-1.26;89.87;97564.98;104816;1276;99368;-69
2023/03/06 03:09:35;;;;;;;28.00;14.30;;;;;;;-1.23;89.83;97561.55;104565;1263;99232;-69
2023/03/06 03:12:05;;;;;;;38.50;19.10;;;;;;;-1.18;89.67;97561.25;104391;1276;112694;-68
2023/03/06 03:14:32;;;;;;;35.90;16.90;;;;;;;-1.13;89.86;97560.45;104727;1271;99339;-68
2023/03/06 03:17:00;;;;;;;34.90;16.80;;;;;;;-1.07;89.84;97558.91;104831;1271;99341;-69
2023/03/06 03:19:28;;;;;;;31.60;15.40;;;;;;;-0.99;89.75;97560.23;104497;1263;99295;-68
2023/03/06 03:21:55;;;;;;;31.40;16.00;;;;;;;-0.93;89.68;97557.77;104746;1271;99168;-68
2023/03/06 03:24:24;;;;;;;28.90;13.90;;;;;;;-0.87;89.39;97555.85;104770;1263;99885;-68
2023/03/06 03:26:51;;;;;;;23.40;12.60;;;;;;;-0.93;88.81;97556.80;104706;1273;99348;-68
2023/03/06 03:29:19;;;;;;;24.50;13.10;;;;;;;-0.95;88.92;97556.09;104845;1261;108443;-68
2023/03/06 03:31:46;;;;;;;30.10;13.10;;;;;;;-0.97;88.98;97556.79;104934;1268;100566;-68
2023/03/06 03:34:13;;;;;;;25.90;12.20;;;;;;;-1.01;88.55;97553.17;104924;1262;100529;-68
2023/03/06 03:36:40;;;;;;;27.80;13.00;;;;;;;-1.10;88.21;97554.29;104898;1273;99256;-68
2023/03/06 03:39:08;;;;;;;31.50;14.00;;;;;;;-1.16;88.08;97549.42;104854;1267;99274;-67
2023/03/06 03:41:36;;;;;;;26.20;13.60;;;;;;;-1.26;87.71;97546.05;104516;1267;108077;-69
2023/03/06 03:44:03;;;;;;;25.10;11.50;;;;;;;-1.39;87.58;97544.23;104893;1263;99262;-68
2023/03/06 03:46:30;;;;;;;22.20;11.20;;;;;;;-1.51;87.42;97540.55;104910;1267;99351;-68
2023/03/06 03:48:58;;;;;;;23.20;11.40;;;;;;;-1.62;87.56;97539.20;104910;1258;99916;-68
2023/03/06 03:51:25;;;;;;;23.30;11.30;;;;;;;-1.73;87.86;97531.95;104819;1271;99743;-67
2023/03/06 03:53:52;;;;;;;27.70;13.30;;;;;;;-1.83;88.24;97531.24;104698;1272;99242;-68
2023/03/06 03:56:19;;;;;;;37.30;17.50;;;;;;;-1.90;88.34;97523.16;104671;1262;99269;-69
2023/03/06 03:58:46;;;;;;;69.10;30.70;;;;;;;-1.94;88.75;97518.36;104554;1264;99311;-67
2023/03/06 04:01:13;;;;;;;44.50;22.40;;;;;;;-1.93;88.98;97517.49;104879;1272;99359;-68
2023/03/06 04:03:40;;;;;;;41.10;20.00;;;;;;;-1.89;89.22;97513.55;104569;1271;100441;-66
2023/03/06 04:06:08;;;;;;;39.80;20.40;;;;;;;-1.84;89.30;97514.32;104709;1271;99481;-67
2023/03/06 04:08:35;;;;;;;41.40;20.00;;;;;;;-1.85;88.88;97519.91;104670;1271;99259;-67
2023/03/06 04:11:02;;;;;;;40.60;18.60;;;;;;;-1.84;88.99;97522.27;104508;1270;112043;-69
2023/03/06 04:13:29;;;;;;;39.80;19.40;;;;;;;-1.78;89.28;97526.01;104599;1262;99335;-68
2023/03/06 04:15:58;;;;;;;40.60;19.10;;;;;;;-1.77;89.03;97526.34;104802;1275;99368;-67
2023/03/06 04:18:25;;;;;;;42.00;19.10;;;;;;;-1.72;89.16;97520.73;104561;1274;99296;-67
2023/03/06 04:20:53;;;;;;;30.80;16.20;;;;;;;-1.64;89.41;97521.09;104882;1271;99853;-67
2023/03/06 04:23:21;;;;;;;30.20;15.70;;;;;;;-1.58;89.23;97523.41;104709;1264;99346;-67
2023/03/06 04:25:49;;;;;;;35.50;17.20;;;;;;;-1.57;89.14;97521.70;104581;1258;99522;-67
2023/03/06 04:28:16;;;;;;;37.20;18.40;;;;;;;-1.53;89.21;97519.62;104712;1263;108772;-66
2023/03/06 04:30:43;;;;;;;25.10;12.10;;;;;;;-1.53;89.18;97511.72;104640;1263;99174;-66
2023/03/06 04:33:11;;;;;;;23.60;9.60;;;;;;;-1.61;89.24;97495.35;104561;1264;100658;-67
2023/03/06 04:35:38;;;;;;;22.10;10.90;;;;;;;-1.68;89.80;97484.14;104915;1273;99273;-69
2023/03/06 04:38:05;;;;;;;16.20;8.00;;;;;;;-1.70;90.02;97489.79;104909;1262;99221;-69
2023/03/06 04:40:35;;;;;;;24.10;10.90;;;;;;;-1.72;90.16;97487.63;104957;1270;99336;-69
2023/03/06 04:43:03;;;;;;;23.40;9.40;;;;;;;-1.70;90.11;97480.92;104938;1271;99341;-69
2023/03/06 04:45:31;;;;;;;18.50;8.60;;;;;;;-1.67;90.24;97476.27;104919;1272;99751;-69
2023/03/06 04:47:59;;;;;;;16.80;8.20;;;;;;;-1.64;90.48;97480.09;104608;1263;112105;-68
2023/03/06 04:50:31;;;;;;;21.50;8.30;;;;;;;-1.60;90.17;97480.69;104579;1263;99240;-68
2023/03/06 04:53:02;;;;;;;22.00;10.10;;;;;;;-1.54;89.98;97490.45;104663;1270;108694;-67
2023/03/06 04:55:29;;;;;;;;;;;;;;;-1.48;89.89;97495.61;104584;1275;99447;-67
2023/03/06 04:57:57;;;;;;;28.70;12.30;;;;;;;-1.42;89.80;97496.23;104946;1271;99780;-67
2023/03/06 05:00:30;;;;;;;18.70;8.60;;;;;;;-1.36;89.69;97493.23;104657;1267;112900;-67
2023/03/06 05:02:59;;;;;;;18.90;8.80;;;;;;;-1.31;89.50;97488.41;104982;1270;100613;-67
2023/03/06 05:05:27;;;;;;;9.70;5.40;;;;;;;-1.29;89.31;97487.77;104962;1281;108566;-67
2023/03/06 05:07:54;;;;;;;11.70;5.80;;;;;;;-1.29;89.23;97481.64;104919;1271;100069;-68
2023/03/06 05:10:22;;;;;;;14.20;7.10;;;;;;;-1.28;89.02;97478.36;104834;1263;99335;-68
2023/03/06 05:12:49;;;;;;;11.10;5.80;;;;;;;-1.29;89.35;97480.45;104623;1263;112997;-67
2023/03/06 05:15:17;;;;;;;10.60;6.20;;;;;;;-1.32;89.24;97482.02;104971;1263;99242;-69
2023/03/06 05:17:45;;;;;;;13.20;7.60;;;;;;;-1.33;89.38;97479.86;104800;1268;99246;-67
2023/03/06 05:20:14;;;;;;;15.60;7.50;;;;;;;-1.32;89.18;97471.26;104612;1273;100848;-67
2023/03/06 05:22:42;;;;;;;15.80;7.00;;;;;;;-1.29;89.22;97473.90;104881;1273;99710;-67
2023/03/06 05:25:09;;;;;;;8.80;4.10;;;;;;;-1.24;89.35;97474.84;104882;1264;113044;-68
2023/03/06 05:27:37;;;;;;;20.40;8.20;;;;;;;-1.22;89.30;97475.10;104696;1262;99311;-67
2023/03/06 05:30:06;;;;;;;13.40;6.70;;;;;;;-1.18;88.95;97478.02;104604;1263;108619;-67
2023/03/06 05:32:33;;;;;;;16.30;8.00;;;;;;;-1.14;89.04;97478.66;104362;1266;99324;-69
2023/03/06 05:35:03;;;;;;;21.30;8.10;;;;;;;-1.10;88.74;97478.09;104739;1264;99773;-70
2023/03/06 05:37:31;;;;;;;18.10;7.80;;;;;;;-1.05;88.72;97480.20;104646;1266;112400;-68
2023/03/06 05:39:59;;;;;;;22.40;9.50;;;;;;;-1.02;88.56;97479.70;104924;1257;100546;-70
2023/03/06 05:42:29;;;;;;;19.00;8.60;;;;;;;-0.97;88.51;97481.91;104871;1262;108689;-68
2023/03/06 05:44:56;;;;;;;12.70;6.40;;;;;;;-0.96;88.41;97476.77;104533;1271;100444;-67
2023/03/06 05:47:23;;;;;;;17.30;7.80;;;;;;;-0.96;88.27;97476.42;104809;1262;99259;-68
2023/03/06 05:49:50;;;;;;;15.30;7.60;;;;;;;-0.96;88.63;97476.70;104867;1271;99243;-70
2023/03/06 05:52:17;;;;;;;10.30;5.20;;;;;;;-0.97;88.36;97476.10;104878;1258;99276;-70
2023/03/06 05:54:50;;;;;;;12.70;6.70;;;;;;;-0.98;88.47;97475.25;104656;1273;99386;-71
2023/03/06 05:57:19;;;;;;;15.70;7.30;;;;;;;-0.98;88.58;97480.14;104811;1263;99329;-70
2023/03/06 05:59:48;;;;;;;16.80;7.10;;;;;;;-0.95;88.40;97479.33;104782;1263;99765;-69
2023/03/06 06:02:16;;;;;;;14.20;6.30;;;;;;;-0.92;88.37;97483.44;104860;1263;113586;-71
2023/03/06 06:04:44;;;;;;;18.70;9.20;;;;;;;-0.88;88.32;97488.33;104511;1266;101041;-70
2023/03/06 06:07:14;;;;;;;20.50;9.80;;;;;;;-0.83;88.23;97486.89;104758;1271;108987;-71
2023/03/06 06:09:44;;;;;;;10.60;5.80;;;;;;;-0.76;88.07;97486.29;104744;1274;99378;-71
2023/03/06 06:12:12;;;;;;;17.10;8.00;;;;;;;-0.72;87.76;97483.23;104883;1277;99279;-70
2023/03/06 06:14:39;;;;;;;13.50;6.80;;;;;;;-0.69;87.57;97482.41;104755;1261;113680;-70
2023/03/06 06:17:06;;;;;;;12.90;6.60;;;;;;;-0.66;87.45;97478.23;104707;1263;99259;-70
2023/03/06 06:19:33;;;;;;;14.20;7.00;;;;;;;-0.60;87.48;97478.98;104803;1261;99777;-68
2023/03/06 06:22:02;;;;;;;9.60;4.60;;;;;;;-0.57;87.34;97479.20;104827;1263;99255;-72
2023/03/06 06:24:30;;;;;;;12.10;5.10;;;;;;;-0.54;87.19;97479.15;104964;1263;99244;-73
2023/03/06 06:26:59;;;;;;;16.80;7.50;;;;;;;-0.54;86.89;97481.89;104621;1279;112565;-69
2023/03/06 06:29:29;;;;;;;11.40;4.60;;;;;;;-0.54;87.11;97479.95;104725;1266;99471;-71
2023/03/06 06:31:57;;;;;;;20.40;7.80;;;;;;;-0.53;87.06;97480.16;104872;1264;99367;-70
2023/03/06 06:34:25;;;;;;;21.60;8.90;;;;;;;-0.49;87.09;97482.90;104651;1261;99439;-70
2023/03/06 06:36:53;;;;;;;21.10;10.00;;;;;;;-0.44;86.78;97484.25;104577;1265;99224;-69
2023/03/06 06:39:22;;;;;;;15.30;4.80;;;;;;;-0.39;86.77;97485.59;104795;1271;113710;-72
2023/03/06 06:41:51;;;;;;;20.10;8.40;;;;;;;-0.34;86.50;97487.63;104775;1264;99293;-68
2023/03/06 06:44:39;;;;;;;16.40;8.70;;;;;;;-0.27;86.24;97492.58;104669;1264;108201;-70
2023/03/06 06:47:06;;;;;;;12.60;5.90;;;;;;;-0.22;86.22;97494.08;104571;1265;99333;-70
2023/03/06 06:49:53;;;;;;;14.00;6.60;;;;;;;-0.20;86.07;97493.80;104502;1267;99733;-70
2023/03/06 06:52:21;;;;;;;21.00;8.90;;;;;;;-0.20;85.83;97493.80;104549;1267;112383;-68
2023/03/06 06:54:48;;;;;;;10.90;5.00;;;;;;;-0.19;86.06;97490.73;104445;1276;99670;-68
2023/03/06 06:57:16;;;;;;;29.40;11.30;;;;;;;-0.21;85.65;97493.55;104772;1270;99268;-70
2023/03/06 06:59:43;;;;;;;13.80;6.80;;;;;;;-0.22;85.95;97493.33;104790;1257;100818;-76
2023/03/06 07:02:12;;;;;;;19.70;8.70;;;;;;;-0.22;85.90;97492.30;104767;1262;99294;-75
2023/03/06 07:04:39;;;;;;;17.90;8.90;;;;;;;-0.19;86.08;97495.04;104513;1277;111200;-73
2023/03/06 07:07:22;;;;;;;17.90;7.40;;;;;;;-0.14;85.94;97495.78;104888;1271;99605;-75
2023/03/06 07:09:51;;;;;;;11.30;5.00;;;;;;;-0.08;85.84;97494.16;104584;1273;108163;-74
2023/03/06 07:12:18;;;;;;;15.40;7.00;;;;;;;-0.03;85.44;97494.96;104856;1270;99363;-77
2023/03/06 07:14:45;;;;;;;24.10;9.10;;;;;;;0.05;85.50;97492.14;104938;1261;99323;-74
2023/03/06 07:17:12;;;;;;;19.50;7.70;;;;;;;0.13;85.27;97495.77;104940;1263;99224;-74
2023/03/06 07:19:39;;;;;;;39.00;13.20;;;;;;;0.20;85.04;97495.65;104966;1264;99262;-70
2023/03/06 07:22:06;;;;;;;21.80;8.80;;;;;;;0.24;84.70;97497.16;104867;1260;99285;-75
2023/03/06 07:24:34;;;;;;;14.30;6.60;;;;;;;0.26;84.43;97494.45;104903;1260;99291;-71
2023/03/06 07:27:01;;;;;;;16.90;7.20;;;;;;;0.28;84.28;97498.42;104994;1264;99310;-68
2023/03/06 07:29:28;;;;;;;13.50;7.00;;;;;;;0.28;84.11;97499.92;104900;1261;99268;-73
2023/03/06 07:31:55;;;;;;;21.00;8.80;;;;;;;0.27;84.04;97502.67;104928;1273;99228;-74
2023/03/06 07:34:22;;;;;;;17.70;7.70;;;;;;;0.30;84.37;97501.86;104517;1266;99450;-73
2023/03/06 07:36:49;;;;;;;18.50;7.70;;;;;;;0.31;83.94;97502.17;104898;1260;99372;-72
2023/03/06 07:39:17;;;;;;;13.80;6.00;;;;;;;0.33;83.85;97502.73;104905;1280;100434;-73
2023/03/06 07:41:44;;;;;;;18.30;7.80;;;;;;;0.38;83.80;97502.59;104886;1270;99269;-71
2023/03/06 07:44:11;;;;;;;16.00;8.30;;;;;;;0.44;83.74;97506.25;104628;1263;100607;-70
2023/03/06 07:46:38;;;;;;;18.80;9.50;;;;;;;0.49;83.44;97504.23;104713;1261;100522;-69
2023/03/06 07:49:05;;;;;;;14.60;7.30;;;;;;;0.57;83.53;97506.08;104960;1273;100202;-66
2023/03/06 07:51:32;;;;;;;18.50;7.20;;;;;;;0.63;83.32;97509.66;104893;1260;99249;-68
2023/03/06 07:53:59;;;;;;;18.40;7.70;;;;;;;0.67;83.00;97507.75;104835;1270;99301;-68
2023/03/06 07:56:26;;;;;;;14.50;7.20;;;;;;;0.74;82.83;97507.89;104593;1265;99529;-67
2023/03/06 07:58:53;;;;;;;14.40;6.70;;;;;;;0.80;82.55;97508.67;104937;1257;99230;-66
2023/03/06 08:01:23;;;;;;;13.70;6.30;;;;;;;0.88;82.79;97504.57;104786;1270;113565;-65
2023/03/06 08:03:50;;;;;;;18.60;7.90;;;;;;;0.93;81.77;97506.38;104771;1261;102835;-66
2023/03/06 08:06:24;;;;;;;13.50;6.60;;;;;;;1.01;81.61;97507.14;104780;1261;108658;-64
2023/03/06 08:08:53;;;;;;;13.90;6.90;;;;;;;1.18;81.79;97504.77;104888;1280;99320;-65
2023/03/06 08:11:23;;;;;;;13.60;4.20;;;;;;;1.38;81.47;97503.38;104687;1260;99743;-67
2023/03/06 08:13:51;;;;;;;12.60;6.10;;;;;;;1.58;80.80;97504.79;104513;1257;112111;-65
2023/03/06 08:16:21;;;;;;;10.80;5.70;;;;;;;1.82;80.88;97506.52;104584;1266;99323;-63
2023/03/06 08:18:48;;;;;;;7.50;4.40;;;;;;;2.00;79.58;97503.21;104735;1262;107097;-68
2023/03/06 08:21:19;;;;;;;9.10;5.10;;;;;;;2.13;79.17;97505.09;104939;1263;100632;-64
2023/03/06 08:23:47;;;;;;;15.50;7.30;;;;;;;2.24;78.85;97508.27;104646;1266;100017;-64
2023/03/06 08:26:33;;;;;;;10.50;5.00;;;;;;;2.41;79.30;97507.97;104983;1262;113564;-63
2023/03/06 08:29:02;;;;;;;10.40;5.20;;;;;;;2.58;78.18;97505.40;104720;1270;99266;-63
2023/03/06 08:31:35;;;;;;;10.60;5.60;;;;;;;2.72;78.26;97507.39;104733;1260;108053;-63
2023/03/06 08:34:24;;;;;;;9.50;5.00;;;;;;;2.81;77.82;97510.35;104543;1276;99266;-63
2023/03/06 08:36:52;;;;;;;11.70;5.10;;;;;;;2.86;76.61;97508.94;104982;1261;99352;-61
2023/03/06 08:39:20;;;;;;;15.70;7.50;;;;;;;2.82;74.78;97511.16;104599;1264;113678;-61
2023/03/06 08:41:47;;;;;;;9.80;5.20;;;;;;;2.84;75.44;97510.52;104687;1257;99536;-61
2023/03/06 08:44:14;;;;;;;7.30;4.60;;;;;;;2.90;75.88;97504.95;104938;1279;100569;-62
2023/03/06 08:46:41;;;;;;;11.30;5.10;;;;;;;3.00;75.48;97509.23;104932;1264;99349;-62
2023/03/06 08:49:11;;;;;;;13.90;5.90;;;;;;;3.07;74.90;97510.54;104791;1263;99240;-63
2023/03/06 08:51:38;;;;;;;10.70;5.80;;;;;;;3.13;75.22;97514.25;104770;1273;113499;-63
2023/03/06 08:54:06;;;;;;;18.40;8.40;;;;;;;3.19;74.81;97507.30;104871;1260;99284;-66
2023/03/06 08:56:33;;;;;;;13.20;6.40;;;;;;;3.29;75.81;97507.63;104911;1271;99344;-67
2023/03/06 08:59:02;;;;;;;14.60;6.60;;;;;;;3.39;74.69;97508.98;104834;1259;99380;-66
2023/03/06 09:01:32;;;;;;;19.20;9.10;;;;;;;3.47;74.85;97508.17;104811;1264;99297;-67
2023/03/06 09:04:03;;;;;;;26.70;10.50;;;;;;;3.57;74.86;97512.30;104814;1271;111967;-68
2023/03/06 09:06:33;;;;;;;18.30;9.20;;;;;;;3.67;74.99;97511.59;105024;1270;99249;-69
2023/03/06 09:09:01;;;;;;;23.20;10.30;;;;;;;3.85;74.46;97511.46;104894;1261;108183;-69
2023/03/06 09:11:28;;;;;;;19.60;9.20;;;;;;;4.11;73.67;97510.23;104816;1270;100658;-66
2023/03/06 09:13:56;;;;;;;20.30;9.60;;;;;;;4.36;73.99;97512.11;104911;1257;100449;-66
2023/03/06 09:16:24;;;;;;;17.40;8.30;;;;;;;4.62;73.18;97506.11;104938;1257;113543;-68
2023/03/06 09:18:52;;;;;;;22.40;9.40;;;;;;;4.87;72.90;97506.20;104916;1256;99457;-68
2023/03/06 09:21:21;;;;;;;16.70;8.40;;;;;;;5.08;71.66;97504.13;104330;1267;107560;-66
2023/03/06 09:23:49;;;;;;;10.60;5.00;;;;;;;5.37;70.64;97504.27;104732;1261;100576;-69
2023/03/06 09:26:17;;;;;;;8.70;4.80;;;;;;;5.54;68.54;97503.34;104772;1273;100131;-68
2023/03/06 09:28:44;;;;;;;11.80;6.00;;;;;;;5.73;69.05;97498.09;104804;1260;113178;-68
2023/03/06 09:31:15;;;;;;;13.70;7.00;;;;;;;6.04;67.80;97492.10;104818;1257;99262;-71
2023/03/06 09:33:42;;;;;;;11.50;6.20;;;;;;;6.44;67.95;97498.45;104548;1264;107825;-71
2023/03/06 09:36:18;;;;;;;11.10;5.90;;;;;;;6.86;67.43;97496.83;104637;1267;99427;-75
2023/03/06 09:38:47;;;;;;;8.70;5.00;;;;;;;7.27;65.28;97498.12;104785;1261;100012;-68
2023/03/06 09:41:36;;;;;;;15.30;7.20;;;;;;;7.39;63.67;97496.48;104895;1261;113244;-65
2023/03/06 09:44:07;;;;;;;9.60;4.90;;;;;;;7.60;63.42;97493.77;104665;1264;99327;-68
2023/03/06 09:46:40;;;;;;;9.20;5.40;;;;;;;7.72;62.81;97492.28;104907;1272;108499;-65
2023/03/06 09:49:19;;;;;;;8.10;4.20;;;;;;;7.81;61.56;97489.69;104858;1262;99259;-67
2023/03/06 09:52:20;;;;;;;8.90;5.20;;;;;;;7.87;62.04;97494.08;104547;1257;99522;-68
2023/03/06 09:54:56;;;;;;;11.70;7.00;;;;;;;7.78;61.49;97495.19;104753;1257;113549;-70
2023/03/06 09:57:30;;;;;;;8.70;4.70;;;;;;;7.75;61.23;97493.34;104574;1257;99510;-70
2023/03/06 10:00:11;;;;;;;8.40;5.00;;;;;;;7.72;59.95;97489.62;104611;1258;107738;-69
2023/03/06 10:03:07;;;;;;;8.00;5.30;;;;;;;7.83;60.68;97486.96;104479;1263;99412;-70
2023/03/06 10:05:41;;;;;;;9.40;5.80;;;;;;;7.97;60.72;97482.27;104137;1267;99328;-74
2023/03/06 10:08:23;;;;;;;5.80;4.20;;;;;;;7.97;59.14;97485.23;104151;1271;113180;-71
2023/03/06 10:10:57;;;;;;;5.80;3.90;;;;;;;7.95;58.93;97483.83;104209;1266;99429;-73
2023/03/06 10:13:42;;;;;;;6.40;3.80;;;;;;;7.88;58.35;97482.52;104171;1278;108819;-71
2023/03/06 10:16:22;;;;;;;8.40;4.70;;;;;;;7.87;58.43;97473.44;104223;1265;99556;-69
2023/03/06 10:18:50;;;;;;;19.80;8.30;;;;;;;7.90;58.83;97465.83;104062;1267;99455;-70
2023/03/06 10:21:54;;;;;;;9.70;4.60;;;;;;;7.89;57.99;97465.56;104059;1269;112129;-70
2023/03/06 10:24:40;;;;;;;7.80;5.40;;;;;;;7.88;57.88;97459.00;104191;1271;100034;-70
2023/03/06 10:27:32;;;;;;;6.50;4.50;;;;;;;7.92;58.28;97456.73;104190;1283;108845;-68
2023/03/06 10:30:08;;;;;;;8.80;5.00;;;;;;;7.93;57.99;97456.29;104219;1271;99370;-68
2023/03/06 10:33:15;;;;;;;8.60;4.70;;;;;;;8.00;57.67;97449.48;104229;1267;100445;-72
2023/03/06 10:35:47;;;;;;;7.90;5.00;;;;;;;8.27;57.24;97443.91;103875;1277;113750;-73
2023/03/06 10:38:27;;;;;;;8.10;4.30;;;;;;;8.43;56.79;97445.03;103844;1289;99396;-71
2023/03/06 10:41:12;;;;;;;10.10;5.10;;;;;;;8.63;56.12;97441.70;103775;1276;108317;-71
2023/03/06 10:43:40;;;;;;;6.10;3.60;;;;;;;8.79;55.53;97441.83;104131;1280;99561;-71
2023/03/06 10:46:13;;;;;;;7.20;3.70;;;;;;;8.78;54.10;97442.64;104373;1272;99904;-69
2023/03/06 10:48:41;;;;;;;5.30;3.40;;;;;;;8.65;53.18;97444.35;104420;1271;113881;-71
2023/03/06 10:51:18;;;;;;;5.00;3.10;;;;;;;8.61;52.03;97442.55;104445;1268;99355;-71
2023/03/06 10:53:55;;;;;;;6.80;4.10;;;;;;;8.52;52.65;97435.93;104179;1283;107806;-71
2023/03/06 10:56:25;;;;;;;6.90;3.90;;;;;;;8.54;53.00;97430.63;104170;1268;99461;-70
2023/03/06 10:59:15;;;;;;;8.60;4.50;;;;;;;8.64;53.56;97424.33;104297;1266;99408;-71
2023/03/06 11:01:45;;;;;;;6.80;4.40;;;;;;;8.89;52.69;97417.77;104189;1268;112096;-74
2023/03/06 11:04:34;;;;;;;6.10;4.00;;;;;;;9.01;52.57;97414.60;104463;1268;99365;-70
2023/03/06 11:07:06;;;;;;;6.10;3.80;;;;;;;9.02;52.47;97412.21;104454;1266;108630;-70
2023/03/06 11:09:34;;;;;;;7.70;5.10;;;;;;;9.14;51.54;97411.15;104185;1279;99367;-70
2023/03/06 11:12:24;;;;;;;9.00;3.90;;;;;;;9.16;50.91;97410.00;104471;1269;99370;-70
2023/03/06 11:15:09;;;;;;;5.50;3.00;;;;;;;9.24;49.95;97405.38;104913;1262;113598;-70
2023/03/06 11:17:46;;;;;;;4.50;3.00;;;;;;;9.42;48.18;97400.44;104712;1262;99230;-70
2023/03/06 11:20:13;;;;;;;6.10;3.40;;;;;;;9.28;46.88;97397.73;104788;1262;108641;-71
2023/03/06 11:22:45;;;;;;;6.90;3.90;;;;;;;9.18;48.14;97392.63;104885;1260;99494;-70
2023/03/06 11:25:17;;;;;;;5.80;3.50;;;;;;;9.31;48.53;97387.94;104692;1260;99257;-71
2023/03/06 11:27:54;;;;;;;8.10;3.70;;;;;;;9.41;49.01;97386.88;104777;1264;113787;-69